Scott Nathan — WDC8788 — position and weather

sailwx.info

Track history (hours):
 
Tides and Currents Weather Stations Pressure Air Temp Water Temp Dewpoint Dewpoint Depression Visibility Wind Speed Wind Dir Waves Ship Positions

Scott Nathan

Owner: BRINDLEY, JAMES A, BARNEGAT LIGHT, NJ. More information available from US FCC via Universal Licensing System and Coast Guard Vessel Documentation Center.

Last reported at 2018-Feb-15 02:42 UTC. Time now 2018-Feb-19 12:01 UTC.
Position N 39°46' W 074°07'.

Length 16 m.

Type: Fishing. MMSI: 367093070.

Date/timePositionNaut miles runAvg speedWind from/ knotsBaromVisibWave heightAir tempDewpointWater temp
2018-Feb-15 02:42N 39°46' W 074°07'1 2.5
2018-Feb-15 02:29N 39°46' W 074°06'3 6.5
2018-Feb-15 01:59N 39°45' W 074°02'3 0.1
2018-Feb-14 01:06N 39°46' W 073°58'3 7.0
2018-Feb-14 00:40N 39°46' W 074°02'2 6.9
2018-Feb-14 00:21N 39°46' W 074°05'1 4.0
2018-Feb-13 23:59N 39°46' W 074°07'  
2018-Feb-07 09:28N 39°47' W 074°03'3 0.1
2018-Feb-06 07:08N 39°47' W 073°59'1 6.9
2018-Feb-06 06:59N 39°47' W 073°60'3 7.0
2018-Feb-06 06:30N 39°46' W 074°04'  
Track history (hours):
 
Tides and Currents Weather Stations Pressure Air Temp Water Temp Dewpoint Dewpoint Depression Visibility Wind Speed Wind Dir Waves Ship Positions

Scott Nathan

Owner: BRINDLEY, JAMES A, BARNEGAT LIGHT, NJ. More information available from US FCC via Universal Licensing System and Coast Guard Vessel Documentation Center.

Last reported at 2018-Feb-15 02:42 UTC. Time now 2018-Feb-19 12:01 UTC.
Position N 39°46' W 074°07'.

Length 16 m.

Type: Fishing. MMSI: 367093070.

Date/timePositionNaut miles runAvg speedWind from/ knotsBaromVisibWave heightAir tempDewpointWater temp
2018-Feb-15 02:42N 39°46' W 074°07'1 2.5
2018-Feb-15 02:29N 39°46' W 074°06'3 6.5
2018-Feb-15 01:59N 39°45' W 074°02'3 0.1
2018-Feb-14 01:06N 39°46' W 073°58'3 7.0
2018-Feb-14 00:40N 39°46' W 074°02'2 6.9
2018-Feb-14 00:21N 39°46' W 074°05'1 4.0
2018-Feb-13 23:59N 39°46' W 074°07'  
2018-Feb-07 09:28N 39°47' W 074°03'3 0.1
2018-Feb-06 07:08N 39°47' W 073°59'1 6.9
2018-Feb-06 06:59N 39°47' W 073°60'3 7.0
2018-Feb-06 06:30N 39°46' W 074°04'  

Dump ship's entire track history